sensor_id;sensor_type;location;lat;lon;timestamp;temperature;humidity
3562;DHT22;1795;52.074;4.754;2023-02-13T00:00:58;7.00;99.90
3562;DHT22;1795;52.074;4.754;2023-02-13T00:03:26;7.00;99.90
3562;DHT22;1795;52.074;4.754;2023-02-13T00:05:54;7.00;99.90
3562;DHT22;1795;52.074;4.754;2023-02-13T00:08:23;7.00;99.90
3562;DHT22;1795;52.074;4.754;2023-02-13T00:10:51;7.00;99.90
3562;DHT22;1795;52.074;4.754;2023-02-13T00:13:19;7.00;99.90
3562;DHT22;1795;52.074;4.754;2023-02-13T00:15:54;6.90;99.90
3562;DHT22;1795;52.074;4.754;2023-02-13T00:18:23;7.00;99.90
3562;DHT22;1795;52.074;4.754;2023-02-13T00:21:01;6.90;99.90
3562;DHT22;1795;52.074;4.754;2023-02-13T00:23:32;6.90;99.90
3562;DHT22;1795;52.074;4.754;2023-02-13T00:26:04;6.90;99.90
3562;DHT22;1795;52.074;4.754;2023-02-13T00:28:32;6.90;99.90
3562;DHT22;1795;52.074;4.754;2023-02-13T00:31:05;6.90;99.90
3562;DHT22;1795;52.074;4.754;2023-02-13T00:33:33;6.90;99.90
3562;DHT22;1795;52.074;4.754;2023-02-13T00:36:06;6.90;99.90
3562;DHT22;1795;52.074;4.754;2023-02-13T00:38:37;6.90;99.90
3562;DHT22;1795;52.074;4.754;2023-02-13T00:41:05;6.90;99.90
3562;DHT22;1795;52.074;4.754;2023-02-13T00:43:34;6.90;99.90
3562;DHT22;1795;52.074;4.754;2023-02-13T00:46:02;6.90;99.90
3562;DHT22;1795;52.074;4.754;2023-02-13T00:48:32;6.90;99.90
3562;DHT22;1795;52.074;4.754;2023-02-13T00:51:01;6.90;99.90
3562;DHT22;1795;52.074;4.754;2023-02-13T00:53:29;6.90;99.90
3562;DHT22;1795;52.074;4.754;2023-02-13T00:55:59;6.90;99.90
3562;DHT22;1795;52.074;4.754;2023-02-13T00:58:28;6.90;99.90
3562;DHT22;1795;52.074;4.754;2023-02-13T01:00:56;6.90;99.90
3562;DHT22;1795;52.074;4.754;2023-02-13T01:03:25;6.90;99.90
3562;DHT22;1795;52.074;4.754;2023-02-13T01:05:55;6.90;99.90
3562;DHT22;1795;52.074;4.754;2023-02-13T01:08:23;6.90;99.90
3562;DHT22;1795;52.074;4.754;2023-02-13T01:10:54;6.90;99.90
3562;DHT22;1795;52.074;4.754;2023-02-13T01:13:24;6.90;99.90
3562;DHT22;1795;52.074;4.754;2023-02-13T01:15:53;6.90;99.90
3562;DHT22;1795;52.074;4.754;2023-02-13T01:18:21;6.90;99.90
3562;DHT22;1795;52.074;4.754;2023-02-13T01:20:56;6.80;99.90
3562;DHT22;1795;52.074;4.754;2023-02-13T01:23:28;6.90;99.90
3562;DHT22;1795;52.074;4.754;2023-02-13T01:25:56;6.90;99.90
3562;DHT22;1795;52.074;4.754;2023-02-13T01:28:26;6.80;99.90
3562;DHT22;1795;52.074;4.754;2023-02-13T01:30:54;6.90;99.90
3562;DHT22;1795;52.074;4.754;2023-02-13T01:33:24;6.80;99.90
3562;DHT22;1795;52.074;4.754;2023-02-13T01:35:53;6.80;99.90
3562;DHT22;1795;52.074;4.754;2023-02-13T01:38:21;6.80;99.90
3562;DHT22;1795;52.074;4.754;2023-02-13T01:40:50;6.80;99.90
3562;DHT22;1795;52.074;4.754;2023-02-13T01:43:19;6.80;99.90
3562;DHT22;1795;52.074;4.754;2023-02-13T01:45:53;6.80;99.90
3562;DHT22;1795;52.074;4.754;2023-02-13T01:48:22;6.80;99.90
3562;DHT22;1795;52.074;4.754;2023-02-13T01:50:55;6.80;99.90
3562;DHT22;1795;52.074;4.754;2023-02-13T01:53:27;6.80;99.90
3562;DHT22;1795;52.074;4.754;2023-02-13T01:56:00;6.80;99.90
3562;DHT22;1795;52.074;4.754;2023-02-13T01:58:32;6.80;99.90
3562;DHT22;1795;52.074;4.754;2023-02-13T02:01:05;6.80;99.90
3562;DHT22;1795;52.074;4.754;2023-02-13T02:03:36;6.80;99.90
3562;DHT22;1795;52.074;4.754;2023-02-13T02:06:07;6.80;99.90
3562;DHT22;1795;52.074;4.754;2023-02-13T02:08:36;6.80;99.90
3562;DHT22;1795;52.074;4.754;2023-02-13T02:11:10;6.80;99.90
3562;DHT22;1795;52.074;4.754;2023-02-13T02:13:42;6.80;99.90
3562;DHT22;1795;52.074;4.754;2023-02-13T02:16:12;6.80;99.90
3562;DHT22;1795;52.074;4.754;2023-02-13T02:18:40;6.80;99.90
3562;DHT22;1795;52.074;4.754;2023-02-13T02:21:41;6.80;99.90
3562;DHT22;1795;52.074;4.754;2023-02-13T02:24:46;6.80;99.90
3562;DHT22;1795;52.074;4.754;2023-02-13T02:30:45;6.80;99.90
3562;DHT22;1795;52.074;4.754;2023-02-13T02:33:24;6.80;99.90
3562;DHT22;1795;52.074;4.754;2023-02-13T02:36:04;6.80;99.90
3562;DHT22;1795;52.074;4.754;2023-02-13T02:38:50;6.80;99.90
3562;DHT22;1795;52.074;4.754;2023-02-13T02:41:28;6.80;99.90
3562;DHT22;1795;52.074;4.754;2023-02-13T02:44:30;6.80;99.90
3562;DHT22;1795;52.074;4.754;2023-02-13T02:47:08;6.80;99.90
3562;DHT22;1795;52.074;4.754;2023-02-13T02:50:11;6.70;99.90
3562;DHT22;1795;52.074;4.754;2023-02-13T02:52:47;6.70;99.90
3562;DHT22;1795;52.074;4.754;2023-02-13T02:55:28;6.70;99.90
3562;DHT22;1795;52.074;4.754;2023-02-13T02:58:04;6.80;99.90
3562;DHT22;1795;52.074;4.754;2023-02-13T03:00:52;6.70;99.90
3562;DHT22;1795;52.074;4.754;2023-02-13T03:03:39;6.70;99.90
3562;DHT22;1795;52.074;4.754;2023-02-13T03:06:31;6.70;99.90
3562;DHT22;1795;52.074;4.754;2023-02-13T03:09:04;6.70;99.90
3562;DHT22;1795;52.074;4.754;2023-02-13T03:11:54;6.70;99.90
3562;DHT22;1795;52.074;4.754;2023-02-13T03:14:40;6.70;99.90
3562;DHT22;1795;52.074;4.754;2023-02-13T03:17:11;6.70;99.90
3562;DHT22;1795;52.074;4.754;2023-02-13T03:20:12;6.70;99.90
3562;DHT22;1795;52.074;4.754;2023-02-13T03:23:14;6.70;99.90
3562;DHT22;1795;52.074;4.754;2023-02-13T03:26:12;6.70;99.90
3562;DHT22;1795;52.074;4.754;2023-02-13T03:28:50;6.70;99.90
3562;DHT22;1795;52.074;4.754;2023-02-13T03:31:44;6.70;99.90
3562;DHT22;1795;52.074;4.754;2023-02-13T03:34:19;6.70;99.90
3562;DHT22;1795;52.074;4.754;2023-02-13T03:36:54;6.70;99.90
3562;DHT22;1795;52.074;4.754;2023-02-13T03:39:53;6.70;99.90
3562;DHT22;1795;52.074;4.754;2023-02-13T03:42:37;6.70;99.90
3562;DHT22;1795;52.074;4.754;2023-02-13T03:45:10;6.70;99.90
3562;DHT22;1795;52.074;4.754;2023-02-13T03:48:13;6.70;99.90
3562;DHT22;1795;52.074;4.754;2023-02-13T03:51:20;6.70;99.90
3562;DHT22;1795;52.074;4.754;2023-02-13T03:53:52;6.70;99.90
3562;DHT22;1795;52.074;4.754;2023-02-13T03:56:23;6.70;99.90
3562;DHT22;1795;52.074;4.754;2023-02-13T03:59:17;6.70;99.90
3562;DHT22;1795;52.074;4.754;2023-02-13T04:01:52;6.70;99.90
3562;DHT22;1795;52.074;4.754;2023-02-13T04:04:25;6.70;99.90
3562;DHT22;1795;52.074;4.754;2023-02-13T04:06:58;6.70;99.90
3562;DHT22;1795;52.074;4.754;2023-02-13T04:09:28;6.70;99.90
3562;DHT22;1795;52.074;4.754;2023-02-13T04:12:06;6.70;99.90
3562;DHT22;1795;52.074;4.754;2023-02-13T04:14:39;6.70;99.90
3562;DHT22;1795;52.074;4.754;2023-02-13T04:17:10;6.70;99.90
3562;DHT22;1795;52.074;4.754;2023-02-13T04:19:40;6.60;99.90
3562;DHT22;1795;52.074;4.754;2023-02-13T04:22:11;6.60;99.90
3562;DHT22;1795;52.074;4.754;2023-02-13T04:24:39;6.70;99.90
3562;DHT22;1795;52.074;4.754;2023-02-13T04:27:10;6.70;99.90
3562;DHT22;1795;52.074;4.754;2023-02-13T04:29:40;6.70;99.90
3562;DHT22;1795;52.074;4.754;2023-02-13T04:32:08;6.70;99.90
3562;DHT22;1795;52.074;4.754;2023-02-13T04:34:37;6.70;99.90
3562;DHT22;1795;52.074;4.754;2023-02-13T04:37:05;6.70;99.90
3562;DHT22;1795;52.074;4.754;2023-02-13T04:39:33;6.70;99.90
3562;DHT22;1795;52.074;4.754;2023-02-13T04:42:01;6.70;99.90
3562;DHT22;1795;52.074;4.754;2023-02-13T04:44:31;6.70;99.90
3562;DHT22;1795;52.074;4.754;2023-02-13T04:46:59;6.60;99.90
3562;DHT22;1795;52.074;4.754;2023-02-13T04:49:27;6.70;99.90
3562;DHT22;1795;52.074;4.754;2023-02-13T04:51:55;6.70;99.90
3562;DHT22;1795;52.074;4.754;2023-02-13T04:54:23;6.70;99.90
3562;DHT22;1795;52.074;4.754;2023-02-13T04:56:51;6.70;99.90
3562;DHT22;1795;52.074;4.754;2023-02-13T04:59:19;6.70;99.90
3562;DHT22;1795;52.074;4.754;2023-02-13T05:01:48;6.70;99.90
3562;DHT22;1795;52.074;4.754;2023-02-13T05:04:16;6.70;99.90
3562;DHT22;1795;52.074;4.754;2023-02-13T05:06:44;6.70;99.90
3562;DHT22;1795;52.074;4.754;2023-02-13T05:09:13;6.70;99.90
3562;DHT22;1795;52.074;4.754;2023-02-13T05:11:41;6.70;99.90
3562;DHT22;1795;52.074;4.754;2023-02-13T05:14:09;6.70;99.90
3562;DHT22;1795;52.074;4.754;2023-02-13T05:16:38;6.70;99.90
3562;DHT22;1795;52.074;4.754;2023-02-13T05:19:07;6.70;99.90
3562;DHT22;1795;52.074;4.754;2023-02-13T05:21:35;6.70;99.90
3562;DHT22;1795;52.074;4.754;2023-02-13T05:24:21;6.60;99.90
3562;DHT22;1795;52.074;4.754;2023-02-13T05:26:49;6.60;99.90
3562;DHT22;1795;52.074;4.754;2023-02-13T05:29:17;6.60;99.90
3562;DHT22;1795;52.074;4.754;2023-02-13T05:31:45;6.60;99.90
3562;DHT22;1795;52.074;4.754;2023-02-13T05:34:15;6.70;99.90
3562;DHT22;1795;52.074;4.754;2023-02-13T05:36:43;6.70;99.90
3562;DHT22;1795;52.074;4.754;2023-02-13T05:39:11;6.70;99.90
3562;DHT22;1795;52.074;4.754;2023-02-13T05:41:39;6.70;99.90
3562;DHT22;1795;52.074;4.754;2023-02-13T05:44:07;6.70;99.90
3562;DHT22;1795;52.074;4.754;2023-02-13T05:46:36;6.60;99.90
3562;DHT22;1795;52.074;4.754;2023-02-13T05:49:05;6.60;99.90
3562;DHT22;1795;52.074;4.754;2023-02-13T05:51:35;6.60;99.90
3562;DHT22;1795;52.074;4.754;2023-02-13T05:54:03;6.60;99.90
3562;DHT22;1795;52.074;4.754;2023-02-13T05:56:31;6.60;99.90
3562;DHT22;1795;52.074;4.754;2023-02-13T05:58:59;6.60;99.90
3562;DHT22;1795;52.074;4.754;2023-02-13T06:01:27;6.60;99.90
3562;DHT22;1795;52.074;4.754;2023-02-13T06:03:55;6.70;99.90
3562;DHT22;1795;52.074;4.754;2023-02-13T06:06:25;6.60;99.90
3562;DHT22;1795;52.074;4.754;2023-02-13T06:08:55;6.60;99.90
3562;DHT22;1795;52.074;4.754;2023-02-13T06:11:23;6.60;99.90
3562;DHT22;1795;52.074;4.754;2023-02-13T06:13:51;6.60;99.90
3562;DHT22;1795;52.074;4.754;2023-02-13T06:16:19;6.60;99.90
3562;DHT22;1795;52.074;4.754;2023-02-13T06:18:48;6.60;99.90
3562;DHT22;1795;52.074;4.754;2023-02-13T06:21:16;6.60;99.90
3562;DHT22;1795;52.074;4.754;2023-02-13T06:23:44;6.60;99.90
3562;DHT22;1795;52.074;4.754;2023-02-13T06:26:13;6.60;99.90
3562;DHT22;1795;52.074;4.754;2023-02-13T06:28:41;6.60;99.90
3562;DHT22;1795;52.074;4.754;2023-02-13T06:31:09;6.60;99.90
3562;DHT22;1795;52.074;4.754;2023-02-13T06:33:38;6.60;99.90
3562;DHT22;1795;52.074;4.754;2023-02-13T06:36:06;6.60;99.90
3562;DHT22;1795;52.074;4.754;2023-02-13T06:38:34;6.60;99.90
3562;DHT22;1795;52.074;4.754;2023-02-13T06:41:02;6.60;99.90
3562;DHT22;1795;52.074;4.754;2023-02-13T06:43:32;6.60;99.90
3562;DHT22;1795;52.074;4.754;2023-02-13T06:46:03;6.60;99.90
3562;DHT22;1795;52.074;4.754;2023-02-13T06:48:31;6.60;99.90
3562;DHT22;1795;52.074;4.754;2023-02-13T06:50:59;6.60;99.90
3562;DHT22;1795;52.074;4.754;2023-02-13T06:53:28;6.60;99.90
3562;DHT22;1795;52.074;4.754;2023-02-13T06:55:56;6.60;99.90
3562;DHT22;1795;52.074;4.754;2023-02-13T06:58:25;6.60;99.90
3562;DHT22;1795;52.074;4.754;2023-02-13T07:00:54;6.60;99.90
3562;DHT22;1795;52.074;4.754;2023-02-13T07:03:23;6.60;99.90
3562;DHT22;1795;52.074;4.754;2023-02-13T07:05:51;6.60;99.90
3562;DHT22;1795;52.074;4.754;2023-02-13T07:08:19;6.60;99.90
3562;DHT22;1795;52.074;4.754;2023-02-13T07:10:47;6.60;99.90
3562;DHT22;1795;52.074;4.754;2023-02-13T07:13:15;6.60;99.90
3562;DHT22;1795;52.074;4.754;2023-02-13T07:15:43;6.60;99.90
3562;DHT22;1795;52.074;4.754;2023-02-13T07:18:12;6.60;99.90
3562;DHT22;1795;52.074;4.754;2023-02-13T07:20:40;6.60;99.90
3562;DHT22;1795;52.074;4.754;2023-02-13T07:23:09;6.60;99.90
3562;DHT22;1795;52.074;4.754;2023-02-13T07:25:37;6.60;99.90
3562;DHT22;1795;52.074;4.754;2023-02-13T07:28:06;6.60;99.90
3562;DHT22;1795;52.074;4.754;2023-02-13T07:30:34;6.60;99.90
3562;DHT22;1795;52.074;4.754;2023-02-13T07:33:04;6.60;99.90
3562;DHT22;1795;52.074;4.754;2023-02-13T07:35:33;6.60;99.90
3562;DHT22;1795;52.074;4.754;2023-02-13T07:38:02;6.60;99.90
3562;DHT22;1795;52.074;4.754;2023-02-13T07:40:30;6.60;99.90
3562;DHT22;1795;52.074;4.754;2023-02-13T07:42:59;6.60;99.90
3562;DHT22;1795;52.074;4.754;2023-02-13T07:45:28;6.60;99.90
3562;DHT22;1795;52.074;4.754;2023-02-13T07:47:56;6.60;99.90
3562;DHT22;1795;52.074;4.754;2023-02-13T07:50:26;6.60;99.90
3562;DHT22;1795;52.074;4.754;2023-02-13T07:52:56;6.60;99.90
3562;DHT22;1795;52.074;4.754;2023-02-13T07:55:25;6.60;99.90
3562;DHT22;1795;52.074;4.754;2023-02-13T07:57:53;6.60;99.90
3562;DHT22;1795;52.074;4.754;2023-02-13T08:00:21;6.60;99.90
3562;DHT22;1795;52.074;4.754;2023-02-13T08:02:49;6.70;99.90
3562;DHT22;1795;52.074;4.754;2023-02-13T08:05:18;6.70;99.90
3562;DHT22;1795;52.074;4.754;2023-02-13T08:07:46;6.70;99.90
3562;DHT22;1795;52.074;4.754;2023-02-13T08:10:15;6.70;99.90
3562;DHT22;1795;52.074;4.754;2023-02-13T08:13:00;6.60;99.90
3562;DHT22;1795;52.074;4.754;2023-02-13T08:15:28;6.70;99.90
3562;DHT22;1795;52.074;4.754;2023-02-13T08:17:56;6.70;99.90
3562;DHT22;1795;52.074;4.754;2023-02-13T08:20:24;6.70;99.90
3562;DHT22;1795;52.074;4.754;2023-02-13T08:22:52;6.70;99.90
3562;DHT22;1795;52.074;4.754;2023-02-13T08:25:22;6.70;99.90
3562;DHT22;1795;52.074;4.754;2023-02-13T08:27:50;6.70;99.90
3562;DHT22;1795;52.074;4.754;2023-02-13T08:30:18;6.70;99.90
3562;DHT22;1795;52.074;4.754;2023-02-13T08:32:46;6.70;99.90
3562;DHT22;1795;52.074;4.754;2023-02-13T08:35:20;6.70;99.90
3562;DHT22;1795;52.074;4.754;2023-02-13T08:37:52;6.70;99.90
3562;DHT22;1795;52.074;4.754;2023-02-13T08:40:22;6.70;99.90
3562;DHT22;1795;52.074;4.754;2023-02-13T08:42:51;6.70;99.90
3562;DHT22;1795;52.074;4.754;2023-02-13T08:45:21;6.70;99.90
3562;DHT22;1795;52.074;4.754;2023-02-13T08:47:49;6.70;99.90
3562;DHT22;1795;52.074;4.754;2023-02-13T08:50:17;6.80;99.90
3562;DHT22;1795;52.074;4.754;2023-02-13T08:52:45;6.80;99.90
3562;DHT22;1795;52.074;4.754;2023-02-13T08:55:13;6.80;99.90
3562;DHT22;1795;52.074;4.754;2023-02-13T08:57:42;6.80;99.90
3562;DHT22;1795;52.074;4.754;2023-02-13T09:00:11;6.80;99.90
3562;DHT22;1795;52.074;4.754;2023-02-13T09:02:40;6.80;99.90
3562;DHT22;1795;52.074;4.754;2023-02-13T09:05:08;6.80;99.90
3562;DHT22;1795;52.074;4.754;2023-02-13T09:07:36;6.80;99.90
3562;DHT22;1795;52.074;4.754;2023-02-13T09:10:08;6.80;99.90
3562;DHT22;1795;52.074;4.754;2023-02-13T09:12:36;6.80;99.90
3562;DHT22;1795;52.074;4.754;2023-02-13T09:15:06;6.80;99.90
3562;DHT22;1795;52.074;4.754;2023-02-13T09:17:34;6.90;99.90
3562;DHT22;1795;52.074;4.754;2023-02-13T09:20:02;6.90;99.90
3562;DHT22;1795;52.074;4.754;2023-02-13T09:22:30;6.90;99.90
3562;DHT22;1795;52.074;4.754;2023-02-13T09:24:58;6.90;99.90
3562;DHT22;1795;52.074;4.754;2023-02-13T09:27:30;6.90;99.90
3562;DHT22;1795;52.074;4.754;2023-02-13T09:29:58;6.90;99.90
3562;DHT22;1795;52.074;4.754;2023-02-13T09:32:27;7.00;99.90
3562;DHT22;1795;52.074;4.754;2023-02-13T09:34:55;7.00;99.90
3562;DHT22;1795;52.074;4.754;2023-02-13T09:37:23;7.00;99.90
3562;DHT22;1795;52.074;4.754;2023-02-13T09:39:52;7.00;99.90
3562;DHT22;1795;52.074;4.754;2023-02-13T09:42:24;7.00;99.90
3562;DHT22;1795;52.074;4.754;2023-02-13T09:44:56;7.10;99.90
3562;DHT22;1795;52.074;4.754;2023-02-13T09:47:29;7.10;99.90
3562;DHT22;1795;52.074;4.754;2023-02-13T09:50:01;7.10;99.90
3562;DHT22;1795;52.074;4.754;2023-02-13T09:52:32;7.10;99.90
3562;DHT22;1795;52.074;4.754;2023-02-13T09:55:01;7.20;99.90
3562;DHT22;1795;52.074;4.754;2023-02-13T09:57:33;7.20;99.90
3562;DHT22;1795;52.074;4.754;2023-02-13T10:00:06;7.20;99.90
3562;DHT22;1795;52.074;4.754;2023-02-13T10:03:05;7.30;99.90
3562;DHT22;1795;52.074;4.754;2023-02-13T10:05:45;7.30;99.90
3562;DHT22;1795;52.074;4.754;2023-02-13T10:08:25;7.30;99.90
3562;DHT22;1795;52.074;4.754;2023-02-13T10:11:01;7.40;99.90
3562;DHT22;1795;52.074;4.754;2023-02-13T10:13:46;7.40;99.90
3562;DHT22;1795;52.074;4.754;2023-02-13T10:16:20;7.40;99.90
3562;DHT22;1795;52.074;4.754;2023-02-13T10:18:54;7.50;99.90
3562;DHT22;1795;52.074;4.754;2023-02-13T10:21:27;7.50;99.90
3562;DHT22;1795;52.074;4.754;2023-02-13T10:23:58;7.50;99.90
3562;DHT22;1795;52.074;4.754;2023-02-13T10:26:31;7.60;99.90
3562;DHT22;1795;52.074;4.754;2023-02-13T10:29:14;7.60;99.90
3562;DHT22;1795;52.074;4.754;2023-02-13T10:32:05;7.60;99.90
3562;DHT22;1795;52.074;4.754;2023-02-13T10:34:39;7.70;99.90
3562;DHT22;1795;52.074;4.754;2023-02-13T10:37:13;7.70;99.90
3562;DHT22;1795;52.074;4.754;2023-02-13T10:39:48;7.80;99.90
3562;DHT22;1795;52.074;4.754;2023-02-13T10:42:20;7.80;99.90
3562;DHT22;1795;52.074;4.754;2023-02-13T10:45:12;7.90;99.90
3562;DHT22;1795;52.074;4.754;2023-02-13T10:47:51;8.00;99.90
3562;DHT22;1795;52.074;4.754;2023-02-13T10:50:27;8.00;99.90
3562;DHT22;1795;52.074;4.754;2023-02-13T10:53:07;8.00;99.90
3562;DHT22;1795;52.074;4.754;2023-02-13T10:56:05;8.10;99.90
3562;DHT22;1795;52.074;4.754;2023-02-13T10:58:49;8.10;99.90
3562;DHT22;1795;52.074;4.754;2023-02-13T11:01:25;8.20;99.90
3562;DHT22;1795;52.074;4.754;2023-02-13T11:04:04;8.30;99.90
3562;DHT22;1795;52.074;4.754;2023-02-13T11:06:36;8.30;99.90
3562;DHT22;1795;52.074;4.754;2023-02-13T11:09:05;8.40;99.90
3562;DHT22;1795;52.074;4.754;2023-02-13T11:11:36;8.40;99.90
3562;DHT22;1795;52.074;4.754;2023-02-13T11:14:10;8.50;99.90
3562;DHT22;1795;52.074;4.754;2023-02-13T11:16:42;8.50;99.90
3562;DHT22;1795;52.074;4.754;2023-02-13T11:19:20;8.60;99.90
3562;DHT22;1795;52.074;4.754;2023-02-13T11:21:53;8.70;99.90
3562;DHT22;1795;52.074;4.754;2023-02-13T11:24:23;8.70;99.90
3562;DHT22;1795;52.074;4.754;2023-02-13T11:26:56;8.80;99.90
3562;DHT22;1795;52.074;4.754;2023-02-13T11:29:27;8.90;99.90
3562;DHT22;1795;52.074;4.754;2023-02-13T11:32:06;8.90;99.90
3562;DHT22;1795;52.074;4.754;2023-02-13T11:34:38;8.90;99.90
3562;DHT22;1795;52.074;4.754;2023-02-13T11:37:19;9.00;99.90
3562;DHT22;1795;52.074;4.754;2023-02-13T11:39:49;9.00;99.90
3562;DHT22;1795;52.074;4.754;2023-02-13T11:42:23;9.20;99.90
3562;DHT22;1795;52.074;4.754;2023-02-13T11:44:54;9.20;99.90
3562;DHT22;1795;52.074;4.754;2023-02-13T11:47:35;9.30;99.90
3562;DHT22;1795;52.074;4.754;2023-02-13T11:50:18;9.30;99.90
3562;DHT22;1795;52.074;4.754;2023-02-13T11:52:55;9.40;99.90
3562;DHT22;1795;52.074;4.754;2023-02-13T11:55:29;9.40;99.90
3562;DHT22;1795;52.074;4.754;2023-02-13T11:58:00;9.50;99.90
3562;DHT22;1795;52.074;4.754;2023-02-13T12:00:32;9.50;99.90
3562;DHT22;1795;52.074;4.754;2023-02-13T12:03:24;9.60;99.90
3562;DHT22;1795;52.074;4.754;2023-02-13T12:06:00;9.60;99.90
3562;DHT22;1795;52.074;4.754;2023-02-13T12:08:32;9.70;99.90
3562;DHT22;1795;52.074;4.754;2023-02-13T12:11:05;9.70;99.90
3562;DHT22;1795;52.074;4.754;2023-02-13T12:13:36;9.80;99.90
3562;DHT22;1795;52.074;4.754;2023-02-13T12:16:10;9.80;99.90
3562;DHT22;1795;52.074;4.754;2023-02-13T12:18:42;9.80;99.90
3562;DHT22;1795;52.074;4.754;2023-02-13T12:21:24;9.90;99.90
3562;DHT22;1795;52.074;4.754;2023-02-13T12:24:03;9.90;99.90
3562;DHT22;1795;52.074;4.754;2023-02-13T12:26:36;9.90;99.90
3562;DHT22;1795;52.074;4.754;2023-02-13T12:29:18;10.00;99.90
3562;DHT22;1795;52.074;4.754;2023-02-13T12:32:09;10.00;99.90
3562;DHT22;1795;52.074;4.754;2023-02-13T12:38:00;10.10;99.90
3562;DHT22;1795;52.074;4.754;2023-02-13T12:40:49;10.20;99.90
3562;DHT22;1795;52.074;4.754;2023-02-13T12:46:23;10.20;99.90
3562;DHT22;1795;52.074;4.754;2023-02-13T12:48:59;10.30;99.90
3562;DHT22;1795;52.074;4.754;2023-02-13T12:51:43;10.40;99.90
3562;DHT22;1795;52.074;4.754;2023-02-13T12:54:27;10.30;99.90
3562;DHT22;1795;52.074;4.754;2023-02-13T12:57:12;10.40;99.90
3562;DHT22;1795;52.074;4.754;2023-02-13T12:59:56;10.50;99.90
3562;DHT22;1795;52.074;4.754;2023-02-13T13:02:46;10.50;99.90
3562;DHT22;1795;52.074;4.754;2023-02-13T13:05:25;10.50;99.90
3562;DHT22;1795;52.074;4.754;2023-02-13T13:08:19;10.50;99.90
3562;DHT22;1795;52.074;4.754;2023-02-13T13:10:58;10.60;99.90
3562;DHT22;1795;52.074;4.754;2023-02-13T13:13:41;10.60;99.90
3562;DHT22;1795;52.074;4.754;2023-02-13T13:16:19;10.60;99.90
3562;DHT22;1795;52.074;4.754;2023-02-13T13:18:58;10.70;99.90
3562;DHT22;1795;52.074;4.754;2023-02-13T13:21:38;10.70;99.90
3562;DHT22;1795;52.074;4.754;2023-02-13T13:24:21;10.70;99.90
3562;DHT22;1795;52.074;4.754;2023-02-13T13:26:51;10.80;99.90
3562;DHT22;1795;52.074;4.754;2023-02-13T13:29:28;10.80;99.90
3562;DHT22;1795;52.074;4.754;2023-02-13T13:32:01;10.80;99.90
3562;DHT22;1795;52.074;4.754;2023-02-13T13:34:30;10.80;99.90
3562;DHT22;1795;52.074;4.754;2023-02-13T13:37:06;10.90;99.90
3562;DHT22;1795;52.074;4.754;2023-02-13T13:39:43;10.90;99.90
3562;DHT22;1795;52.074;4.754;2023-02-13T13:42:17;10.90;99.90
3562;DHT22;1795;52.074;4.754;2023-02-13T13:48:04;11.00;99.90
3562;DHT22;1795;52.074;4.754;2023-02-13T13:50:39;11.00;99.90
3562;DHT22;1795;52.074;4.754;2023-02-13T13:53:10;11.00;99.90
3562;DHT22;1795;52.074;4.754;2023-02-13T13:55:58;11.10;99.90
3562;DHT22;1795;52.074;4.754;2023-02-13T13:58:33;11.10;99.90
3562;DHT22;1795;52.074;4.754;2023-02-13T14:01:24;11.10;99.90
3562;DHT22;1795;52.074;4.754;2023-02-13T14:03:56;11.10;99.90
3562;DHT22;1795;52.074;4.754;2023-02-13T14:06:26;11.10;99.90
3562;DHT22;1795;52.074;4.754;2023-02-13T14:09:01;11.20;99.90
3562;DHT22;1795;52.074;4.754;2023-02-13T14:11:38;11.10;99.90
3562;DHT22;1795;52.074;4.754;2023-02-13T14:17:49;11.10;99.90
3562;DHT22;1795;52.074;4.754;2023-02-13T14:20:40;11.20;99.90
3562;DHT22;1795;52.074;4.754;2023-02-13T14:23:25;11.20;99.90
3562;DHT22;1795;52.074;4.754;2023-02-13T14:26:30;11.20;99.90
3562;DHT22;1795;52.074;4.754;2023-02-13T14:32:12;11.20;99.90
3562;DHT22;1795;52.074;4.754;2023-02-13T14:34:52;11.20;99.90
3562;DHT22;1795;52.074;4.754;2023-02-13T14:37:27;11.20;99.90
3562;DHT22;1795;52.074;4.754;2023-02-13T14:48:54;11.20;99.90
3562;DHT22;1795;52.074;4.754;2023-02-13T14:51:27;11.20;99.90
3562;DHT22;1795;52.074;4.754;2023-02-13T14:54:03;11.20;99.90
3562;DHT22;1795;52.074;4.754;2023-02-13T14:56:32;11.30;99.90
3562;DHT22;1795;52.074;4.754;2023-02-13T14:59:09;11.20;99.90
3562;DHT22;1795;52.074;4.754;2023-02-13T15:01:47;11.20;99.90
3562;DHT22;1795;52.074;4.754;2023-02-13T15:04:23;11.20;99.90
3562;DHT22;1795;52.074;4.754;2023-02-13T15:06:53;11.20;99.90
3562;DHT22;1795;52.074;4.754;2023-02-13T15:09:29;11.20;99.90
3562;DHT22;1795;52.074;4.754;2023-02-13T15:11:58;11.30;99.90
3562;DHT22;1795;52.074;4.754;2023-02-13T15:14:31;11.20;99.90
3562;DHT22;1795;52.074;4.754;2023-02-13T15:17:05;11.20;99.90
3562;DHT22;1795;52.074;4.754;2023-02-13T15:19:35;11.20;99.90
3562;DHT22;1795;52.074;4.754;2023-02-13T15:22:05;11.20;99.90
3562;DHT22;1795;52.074;4.754;2023-02-13T15:24:42;11.20;99.90
3562;DHT22;1795;52.074;4.754;2023-02-13T15:27:17;11.10;99.90
3562;DHT22;1795;52.074;4.754;2023-02-13T15:29:53;11.10;99.90
3562;DHT22;1795;52.074;4.754;2023-02-13T15:32:28;11.10;99.90
3562;DHT22;1795;52.074;4.754;2023-02-13T15:34:56;11.10;99.90
3562;DHT22;1795;52.074;4.754;2023-02-13T15:37:27;11.10;99.90
3562;DHT22;1795;52.074;4.754;2023-02-13T15:40:12;11.00;99.90
3562;DHT22;1795;52.074;4.754;2023-02-13T15:42:40;11.00;99.90
3562;DHT22;1795;52.074;4.754;2023-02-13T15:45:14;11.10;99.90
3562;DHT22;1795;52.074;4.754;2023-02-13T15:47:44;11.00;99.90
3562;DHT22;1795;52.074;4.754;2023-02-13T15:50:15;11.00;99.90
3562;DHT22;1795;52.074;4.754;2023-02-13T15:52:44;11.00;99.90
3562;DHT22;1795;52.074;4.754;2023-02-13T15:55:26;11.00;99.90
3562;DHT22;1795;52.074;4.754;2023-02-13T15:57:57;11.00;99.90
3562;DHT22;1795;52.074;4.754;2023-02-13T16:00:27;10.90;99.90
3562;DHT22;1795;52.074;4.754;2023-02-13T16:02:58;11.00;99.90
3562;DHT22;1795;52.074;4.754;2023-02-13T16:05:29;10.90;99.90
3562;DHT22;1795;52.074;4.754;2023-02-13T16:08:37;10.90;99.90
3562;DHT22;1795;52.074;4.754;2023-02-13T16:11:26;10.90;99.90
3562;DHT22;1795;52.074;4.754;2023-02-13T16:14:13;10.80;99.90
3562;DHT22;1795;52.074;4.754;2023-02-13T16:16:46;10.80;99.90
3562;DHT22;1795;52.074;4.754;2023-02-13T16:19:24;10.80;99.90
3562;DHT22;1795;52.074;4.754;2023-02-13T16:21:54;10.80;99.90
3562;DHT22;1795;52.074;4.754;2023-02-13T16:24:23;10.70;99.90
3562;DHT22;1795;52.074;4.754;2023-02-13T16:26:54;10.70;99.90
3562;DHT22;1795;52.074;4.754;2023-02-13T16:29:23;10.70;99.90
3562;DHT22;1795;52.074;4.754;2023-02-13T16:31:53;10.70;99.90
3562;DHT22;1795;52.074;4.754;2023-02-13T16:34:29;10.60;99.90
3562;DHT22;1795;52.074;4.754;2023-02-13T16:36:58;10.60;99.90
3562;DHT22;1795;52.074;4.754;2023-02-13T16:39:27;10.60;99.90
3562;DHT22;1795;52.074;4.754;2023-02-13T16:41:58;10.50;99.90
3562;DHT22;1795;52.074;4.754;2023-02-13T16:44:28;10.50;99.90
3562;DHT22;1795;52.074;4.754;2023-02-13T16:46:58;10.50;99.90
3562;DHT22;1795;52.074;4.754;2023-02-13T16:49:29;10.40;99.90
3562;DHT22;1795;52.074;4.754;2023-02-13T16:52:09;10.40;99.90
3562;DHT22;1795;52.074;4.754;2023-02-13T16:54:47;10.30;99.90
3562;DHT22;1795;52.074;4.754;2023-02-13T16:57:25;10.30;99.90
3562;DHT22;1795;52.074;4.754;2023-02-13T17:00:02;10.20;99.90
3562;DHT22;1795;52.074;4.754;2023-02-13T17:02:32;10.20;99.90
3562;DHT22;1795;52.074;4.754;2023-02-13T17:05:19;10.10;99.90
3562;DHT22;1795;52.074;4.754;2023-02-13T17:07:49;10.10;99.90
3562;DHT22;1795;52.074;4.754;2023-02-13T17:10:21;10.10;99.90
3562;DHT22;1795;52.074;4.754;2023-02-13T17:12:51;10.00;99.90
3562;DHT22;1795;52.074;4.754;2023-02-13T17:15:20;10.00;99.90
3562;DHT22;1795;52.074;4.754;2023-02-13T17:17:49;9.90;99.90
3562;DHT22;1795;52.074;4.754;2023-02-13T17:20:18;9.90;99.90
3562;DHT22;1795;52.074;4.754;2023-02-13T17:22:49;9.90;99.90
3562;DHT22;1795;52.074;4.754;2023-02-13T17:25:20;9.80;99.90